首页
METAR-TAF:

METAR-TAF

机场 :

布拉格瓦茨拉夫·哈維爾國際機場

布拉格, 捷克共和国

纬度: 50-06N, 经度: 014-15E, 海拔: 365米

当前天气观测

该预报发布于17分钟前的02:00 UTC
风速8节,风向西转西南
温度 9°C
湿度 87%
气压 1021 hPa
能见度10公里或以上
1500米以下无云,无积雨云

METAR: LKPR 230200Z 24008KT CAVOK 09/07 Q1021 NOSIG

时间: 04:17 (02:17 UTC)

预报

该预报发布于3小时和17分钟前的23:00 UTC
预报有效从23日的 00点(UTC)到 24日的 06点(UTC)
风速10节,风向西
能见度10公里或以上
散云层高于4000英尺
短暂存在
从 23日的 00点(UTC)到 24日的 06点(UTC)
风速12节,风向西,有时为24节阵风
短暂存在
从 23日的 08点(UTC)到 23日的 19点(UTC)
多云层高于3000英尺
阵雨
几率 30% :
短暂存在
从 23日的 12点(UTC)到 23日的 18点(UTC)
能見度: 4000
散云层高于2500英尺, 塔状积云.
阵雨

TAF: LKPR 222300Z 2300/2406 27010KT 9999 SCT040 TEMPO 2300/2406 28012G24KT TEMPO 2308/2319 SHRA BKN030 PROB30 TEMPO 2312/2318 4000 SHRA SCT025TCU

超过4000个机场的气象观测和天气预报(METAR&TAF报告)。

可查询的气象台以黄色和红色小点在地图上表示。

将鼠标移到小点上方,可查看气象台名称。

然后点击查看天气观测和预报。

如需切换地图:点击带黑十字的绿色按钮放大地图;点击带横线的绿色按钮缩小地图;或者点击绿色箭头查看邻近地区的地图。


METAR-TAF: